sensor_id;sensor_type;location;lat;lon;timestamp;P1;durP1;ratioP1;P2;durP2;ratioP2
20322;SDS011;10319;52.206;20.996;2022-12-29T00:01:30;15.30;;;3.93;;
20322;SDS011;10319;52.206;20.996;2022-12-29T00:03:55;14.73;;;3.93;;
20322;SDS011;10319;52.206;20.996;2022-12-29T00:06:21;15.50;;;3.70;;
20322;SDS011;10319;52.206;20.996;2022-12-29T00:08:46;17.20;;;4.00;;
20322;SDS011;10319;52.206;20.996;2022-12-29T00:11:13;15.07;;;4.00;;
20322;SDS011;10319;52.206;20.996;2022-12-29T00:13:39;14.00;;;3.83;;
20322;SDS011;10319;52.206;20.996;2022-12-29T00:16:23;13.07;;;3.60;;
20322;SDS011;10319;52.206;20.996;2022-12-29T00:18:49;14.13;;;3.70;;
20322;SDS011;10319;52.206;20.996;2022-12-29T00:21:15;15.40;;;4.07;;
20322;SDS011;10319;52.206;20.996;2022-12-29T00:23:59;13.63;;;3.57;;
20322;SDS011;10319;52.206;20.996;2022-12-29T00:26:44;14.03;;;3.80;;
20322;SDS011;10319;52.206;20.996;2022-12-29T00:29:28;14.43;;;3.47;;
20322;SDS011;10319;52.206;20.996;2022-12-29T00:32:12;15.10;;;3.90;;
20322;SDS011;10319;52.206;20.996;2022-12-29T00:34:56;15.00;;;4.07;;
20322;SDS011;10319;52.206;20.996;2022-12-29T00:37:34;12.93;;;3.50;;
20322;SDS011;10319;52.206;20.996;2022-12-29T00:40:18;14.00;;;3.60;;
20322;SDS011;10319;52.206;20.996;2022-12-29T00:43:02;15.23;;;3.70;;
20322;SDS011;10319;52.206;20.996;2022-12-29T00:45:46;14.50;;;3.60;;
20322;SDS011;10319;52.206;20.996;2022-12-29T00:48:11;13.90;;;3.60;;
20322;SDS011;10319;52.206;20.996;2022-12-29T00:50:37;15.67;;;3.83;;
20322;SDS011;10319;52.206;20.996;2022-12-29T00:53:02;14.13;;;3.70;;
20322;SDS011;10319;52.206;20.996;2022-12-29T00:55:27;14.20;;;4.07;;
20322;SDS011;10319;52.206;20.996;2022-12-29T00:57:53;15.53;;;3.90;;
20322;SDS011;10319;52.206;20.996;2022-12-29T01:00:18;13.17;;;3.60;;
20322;SDS011;10319;52.206;20.996;2022-12-29T01:02:43;14.90;;;3.73;;
20322;SDS011;10319;52.206;20.996;2022-12-29T01:05:08;14.00;;;3.57;;
20322;SDS011;10319;52.206;20.996;2022-12-29T01:07:33;15.50;;;3.77;;
20322;SDS011;10319;52.206;20.996;2022-12-29T01:09:59;13.30;;;3.40;;
20322;SDS011;10319;52.206;20.996;2022-12-29T01:12:36;12.20;;;3.33;;
20322;SDS011;10319;52.206;20.996;2022-12-29T01:15:10;14.03;;;3.43;;
20322;SDS011;10319;52.206;20.996;2022-12-29T01:17:36;15.53;;;4.30;;
20322;SDS011;10319;52.206;20.996;2022-12-29T01:20:01;14.20;;;3.43;;
20322;SDS011;10319;52.206;20.996;2022-12-29T01:22:27;12.40;;;3.00;;
20322;SDS011;10319;52.206;20.996;2022-12-29T01:24:52;14.43;;;3.77;;
20322;SDS011;10319;52.206;20.996;2022-12-29T01:27:18;14.53;;;3.57;;
20322;SDS011;10319;52.206;20.996;2022-12-29T01:29:43;14.43;;;3.77;;
20322;SDS011;10319;52.206;20.996;2022-12-29T01:32:08;14.50;;;3.70;;
20322;SDS011;10319;52.206;20.996;2022-12-29T01:34:33;14.73;;;3.53;;
20322;SDS011;10319;52.206;20.996;2022-12-29T01:36:59;12.23;;;3.20;;
20322;SDS011;10319;52.206;20.996;2022-12-29T01:39:24;15.30;;;3.57;;
20322;SDS011;10319;52.206;20.996;2022-12-29T01:41:49;13.87;;;3.40;;
20322;SDS011;10319;52.206;20.996;2022-12-29T01:46:58;13.63;;;3.47;;
20322;SDS011;10319;52.206;20.996;2022-12-29T01:49:24;14.27;;;3.37;;
20322;SDS011;10319;52.206;20.996;2022-12-29T01:51:59;11.73;;;2.90;;
20322;SDS011;10319;52.206;20.996;2022-12-29T01:56:59;12.90;;;3.27;;
20322;SDS011;10319;52.206;20.996;2022-12-29T01:59:27;12.47;;;2.97;;
20322;SDS011;10319;52.206;20.996;2022-12-29T02:01:53;12.53;;;3.10;;
20322;SDS011;10319;52.206;20.996;2022-12-29T02:04:19;12.67;;;3.00;;
20322;SDS011;10319;52.206;20.996;2022-12-29T02:06:54;13.00;;;3.23;;
20322;SDS011;10319;52.206;20.996;2022-12-29T02:09:20;12.47;;;2.93;;
20322;SDS011;10319;52.206;20.996;2022-12-29T02:11:46;13.80;;;3.30;;
20322;SDS011;10319;52.206;20.996;2022-12-29T02:14:12;13.23;;;2.97;;
20322;SDS011;10319;52.206;20.996;2022-12-29T02:16:49;12.57;;;2.90;;
20322;SDS011;10319;52.206;20.996;2022-12-29T02:22:04;15.37;;;3.33;;
20322;SDS011;10319;52.206;20.996;2022-12-29T02:24:37;12.23;;;2.87;;
20322;SDS011;10319;52.206;20.996;2022-12-29T02:34:31;13.23;;;3.00;;
20322;SDS011;10319;52.206;20.996;2022-12-29T02:39:47;14.73;;;3.23;;
20322;SDS011;10319;52.206;20.996;2022-12-29T02:45:03;13.47;;;2.97;;
20322;SDS011;10319;52.206;20.996;2022-12-29T02:47:35;12.40;;;3.10;;
20322;SDS011;10319;52.206;20.996;2022-12-29T02:50:21;12.73;;;3.07;;
20322;SDS011;10319;52.206;20.996;2022-12-29T02:52:52;13.37;;;3.17;;
20322;SDS011;10319;52.206;20.996;2022-12-29T02:55:19;12.77;;;3.03;;
20322;SDS011;10319;52.206;20.996;2022-12-29T02:57:45;13.13;;;3.57;;
20322;SDS011;10319;52.206;20.996;2022-12-29T03:00:10;11.40;;;3.03;;
20322;SDS011;10319;52.206;20.996;2022-12-29T03:20:54;11.97;;;2.90;;
20322;SDS011;10319;52.206;20.996;2022-12-29T03:23:20;12.87;;;3.00;;
20322;SDS011;10319;52.206;20.996;2022-12-29T03:25:47;13.53;;;3.07;;
20322;SDS011;10319;52.206;20.996;2022-12-29T03:28:15;11.63;;;3.20;;
20322;SDS011;10319;52.206;20.996;2022-12-29T03:30:43;12.83;;;3.17;;
20322;SDS011;10319;52.206;20.996;2022-12-29T03:33:09;13.63;;;2.87;;
20322;SDS011;10319;52.206;20.996;2022-12-29T03:35:36;11.73;;;3.00;;
20322;SDS011;10319;52.206;20.996;2022-12-29T03:38:24;13.47;;;3.10;;
20322;SDS011;10319;52.206;20.996;2022-12-29T03:40:52;11.10;;;2.70;;
20322;SDS011;10319;52.206;20.996;2022-12-29T03:43:20;12.87;;;2.97;;
20322;SDS011;10319;52.206;20.996;2022-12-29T03:45:46;14.27;;;3.23;;
20322;SDS011;10319;52.206;20.996;2022-12-29T03:48:11;12.13;;;2.60;;
20322;SDS011;10319;52.206;20.996;2022-12-29T03:50:36;13.30;;;3.00;;
20322;SDS011;10319;52.206;20.996;2022-12-29T03:53:02;11.33;;;2.80;;
20322;SDS011;10319;52.206;20.996;2022-12-29T03:55:27;10.20;;;2.77;;
20322;SDS011;10319;52.206;20.996;2022-12-29T03:57:52;11.30;;;3.03;;
20322;SDS011;10319;52.206;20.996;2022-12-29T04:00:17;11.40;;;3.00;;
20322;SDS011;10319;52.206;20.996;2022-12-29T04:02:43;12.77;;;2.93;;
20322;SDS011;10319;52.206;20.996;2022-12-29T04:05:08;12.93;;;2.80;;
20322;SDS011;10319;52.206;20.996;2022-12-29T04:07:33;12.83;;;3.50;;
20322;SDS011;10319;52.206;20.996;2022-12-29T04:09:59;13.13;;;3.23;;
20322;SDS011;10319;52.206;20.996;2022-12-29T04:12:24;11.63;;;2.90;;
20322;SDS011;10319;52.206;20.996;2022-12-29T04:14:49;15.20;;;3.20;;
20322;SDS011;10319;52.206;20.996;2022-12-29T04:17:14;13.50;;;3.27;;
20322;SDS011;10319;52.206;20.996;2022-12-29T04:19:40;13.23;;;2.97;;
20322;SDS011;10319;52.206;20.996;2022-12-29T04:22:07;12.20;;;3.17;;
20322;SDS011;10319;52.206;20.996;2022-12-29T04:24:32;14.17;;;3.60;;
20322;SDS011;10319;52.206;20.996;2022-12-29T04:26:58;11.67;;;3.20;;
20322;SDS011;10319;52.206;20.996;2022-12-29T04:29:23;13.47;;;3.43;;
20322;SDS011;10319;52.206;20.996;2022-12-29T04:31:49;15.57;;;3.80;;
20322;SDS011;10319;52.206;20.996;2022-12-29T04:34:14;14.13;;;3.73;;
20322;SDS011;10319;52.206;20.996;2022-12-29T04:36:39;13.70;;;3.43;;
20322;SDS011;10319;52.206;20.996;2022-12-29T04:39:05;13.90;;;3.80;;
20322;SDS011;10319;52.206;20.996;2022-12-29T04:41:30;14.03;;;3.60;;
20322;SDS011;10319;52.206;20.996;2022-12-29T04:43:55;15.20;;;3.80;;
20322;SDS011;10319;52.206;20.996;2022-12-29T04:46:21;14.23;;;3.70;;
20322;SDS011;10319;52.206;20.996;2022-12-29T04:48:46;13.93;;;3.97;;
20322;SDS011;10319;52.206;20.996;2022-12-29T04:51:11;14.10;;;3.40;;
20322;SDS011;10319;52.206;20.996;2022-12-29T04:53:36;16.33;;;3.87;;
20322;SDS011;10319;52.206;20.996;2022-12-29T04:56:01;15.43;;;3.87;;
20322;SDS011;10319;52.206;20.996;2022-12-29T04:58:27;14.53;;;4.03;;
20322;SDS011;10319;52.206;20.996;2022-12-29T05:00:52;17.00;;;4.60;;
20322;SDS011;10319;52.206;20.996;2022-12-29T05:03:17;16.57;;;4.00;;
20322;SDS011;10319;52.206;20.996;2022-12-29T05:05:43;14.90;;;4.00;;
20322;SDS011;10319;52.206;20.996;2022-12-29T05:08:08;14.60;;;4.53;;
20322;SDS011;10319;52.206;20.996;2022-12-29T05:10:33;16.80;;;4.80;;
20322;SDS011;10319;52.206;20.996;2022-12-29T05:12:59;16.60;;;4.50;;
20322;SDS011;10319;52.206;20.996;2022-12-29T05:15:24;15.33;;;4.10;;
20322;SDS011;10319;52.206;20.996;2022-12-29T05:17:49;17.33;;;4.80;;
20322;SDS011;10319;52.206;20.996;2022-12-29T05:20:15;15.33;;;4.27;;
20322;SDS011;10319;52.206;20.996;2022-12-29T05:22:40;15.57;;;4.30;;
20322;SDS011;10319;52.206;20.996;2022-12-29T05:25:05;15.73;;;4.60;;
20322;SDS011;10319;52.206;20.996;2022-12-29T05:27:31;16.33;;;4.40;;
20322;SDS011;10319;52.206;20.996;2022-12-29T05:29:56;16.10;;;4.37;;
20322;SDS011;10319;52.206;20.996;2022-12-29T05:32:21;16.37;;;4.40;;
20322;SDS011;10319;52.206;20.996;2022-12-29T05:34:47;16.23;;;4.90;;
20322;SDS011;10319;52.206;20.996;2022-12-29T05:37:12;16.40;;;4.40;;
20322;SDS011;10319;52.206;20.996;2022-12-29T05:39:37;16.07;;;4.60;;
20322;SDS011;10319;52.206;20.996;2022-12-29T05:42:02;15.67;;;4.53;;
20322;SDS011;10319;52.206;20.996;2022-12-29T05:44:28;15.83;;;4.57;;
20322;SDS011;10319;52.206;20.996;2022-12-29T05:46:53;15.20;;;4.70;;
20322;SDS011;10319;52.206;20.996;2022-12-29T05:49:18;17.10;;;4.30;;
20322;SDS011;10319;52.206;20.996;2022-12-29T05:51:44;16.77;;;4.23;;
20322;SDS011;10319;52.206;20.996;2022-12-29T05:54:09;15.87;;;4.30;;
20322;SDS011;10319;52.206;20.996;2022-12-29T05:56:34;18.07;;;4.27;;
20322;SDS011;10319;52.206;20.996;2022-12-29T05:58:59;18.00;;;4.63;;
20322;SDS011;10319;52.206;20.996;2022-12-29T06:01:25;16.47;;;4.40;;
20322;SDS011;10319;52.206;20.996;2022-12-29T06:03:50;16.17;;;4.43;;
20322;SDS011;10319;52.206;20.996;2022-12-29T06:06:15;16.33;;;4.43;;
20322;SDS011;10319;52.206;20.996;2022-12-29T06:08:41;15.40;;;4.23;;
20322;SDS011;10319;52.206;20.996;2022-12-29T06:11:06;15.27;;;4.53;;
20322;SDS011;10319;52.206;20.996;2022-12-29T06:13:31;16.13;;;4.33;;
20322;SDS011;10319;52.206;20.996;2022-12-29T06:15:57;16.67;;;4.57;;
20322;SDS011;10319;52.206;20.996;2022-12-29T06:18:22;18.87;;;4.93;;
20322;SDS011;10319;52.206;20.996;2022-12-29T06:20:47;15.47;;;4.43;;
20322;SDS011;10319;52.206;20.996;2022-12-29T06:23:13;15.13;;;4.40;;
20322;SDS011;10319;52.206;20.996;2022-12-29T06:25:38;16.73;;;4.43;;
20322;SDS011;10319;52.206;20.996;2022-12-29T06:28:03;16.23;;;4.33;;
20322;SDS011;10319;52.206;20.996;2022-12-29T06:30:30;17.43;;;4.53;;
20322;SDS011;10319;52.206;20.996;2022-12-29T06:32:55;17.07;;;4.20;;
20322;SDS011;10319;52.206;20.996;2022-12-29T06:35:20;15.93;;;4.10;;
20322;SDS011;10319;52.206;20.996;2022-12-29T06:37:47;16.50;;;4.00;;
20322;SDS011;10319;52.206;20.996;2022-12-29T06:40:13;14.17;;;3.67;;
20322;SDS011;10319;52.206;20.996;2022-12-29T06:42:38;17.13;;;4.13;;
20322;SDS011;10319;52.206;20.996;2022-12-29T06:45:03;15.03;;;4.00;;
20322;SDS011;10319;52.206;20.996;2022-12-29T06:47:29;14.70;;;4.17;;
20322;SDS011;10319;52.206;20.996;2022-12-29T06:49:54;16.37;;;4.13;;
20322;SDS011;10319;52.206;20.996;2022-12-29T06:52:19;14.93;;;3.80;;
20322;SDS011;10319;52.206;20.996;2022-12-29T06:54:45;15.33;;;3.90;;
20322;SDS011;10319;52.206;20.996;2022-12-29T06:57:10;14.60;;;3.40;;
20322;SDS011;10319;52.206;20.996;2022-12-29T06:59:35;14.97;;;3.77;;
20322;SDS011;10319;52.206;20.996;2022-12-29T07:02:00;15.23;;;4.00;;
20322;SDS011;10319;52.206;20.996;2022-12-29T07:04:27;14.80;;;3.60;;
20322;SDS011;10319;52.206;20.996;2022-12-29T07:06:52;13.77;;;3.77;;
20322;SDS011;10319;52.206;20.996;2022-12-29T07:09:17;15.10;;;3.60;;
20322;SDS011;10319;52.206;20.996;2022-12-29T07:11:42;18.33;;;4.03;;
20322;SDS011;10319;52.206;20.996;2022-12-29T07:14:08;16.83;;;3.90;;
20322;SDS011;10319;52.206;20.996;2022-12-29T07:16:33;15.07;;;3.60;;
20322;SDS011;10319;52.206;20.996;2022-12-29T07:18:59;16.50;;;3.97;;
20322;SDS011;10319;52.206;20.996;2022-12-29T07:21:24;14.23;;;3.97;;
20322;SDS011;10319;52.206;20.996;2022-12-29T07:23:49;14.97;;;3.70;;
20322;SDS011;10319;52.206;20.996;2022-12-29T07:26:15;14.50;;;3.53;;
20322;SDS011;10319;52.206;20.996;2022-12-29T07:28:42;13.67;;;3.83;;
20322;SDS011;10319;52.206;20.996;2022-12-29T07:31:14;16.13;;;3.80;;
20322;SDS011;10319;52.206;20.996;2022-12-29T07:33:40;13.67;;;3.27;;
20322;SDS011;10319;52.206;20.996;2022-12-29T07:36:06;16.40;;;3.90;;
20322;SDS011;10319;52.206;20.996;2022-12-29T07:38:31;12.40;;;3.27;;
20322;SDS011;10319;52.206;20.996;2022-12-29T07:40:57;14.07;;;3.87;;
20322;SDS011;10319;52.206;20.996;2022-12-29T07:43:23;14.37;;;3.40;;
20322;SDS011;10319;52.206;20.996;2022-12-29T07:45:48;15.67;;;4.00;;
20322;SDS011;10319;52.206;20.996;2022-12-29T07:48:13;13.07;;;3.47;;
20322;SDS011;10319;52.206;20.996;2022-12-29T07:50:39;14.80;;;3.83;;
20322;SDS011;10319;52.206;20.996;2022-12-29T07:53:04;14.83;;;3.80;;
20322;SDS011;10319;52.206;20.996;2022-12-29T07:55:29;13.57;;;3.50;;
20322;SDS011;10319;52.206;20.996;2022-12-29T07:57:55;13.80;;;3.47;;
20322;SDS011;10319;52.206;20.996;2022-12-29T08:00:20;13.93;;;3.60;;
20322;SDS011;10319;52.206;20.996;2022-12-29T08:02:45;12.87;;;3.47;;
20322;SDS011;10319;52.206;20.996;2022-12-29T08:05:10;15.30;;;3.73;;
20322;SDS011;10319;52.206;20.996;2022-12-29T08:07:36;15.23;;;3.50;;
20322;SDS011;10319;52.206;20.996;2022-12-29T08:10:01;15.70;;;3.53;;
20322;SDS011;10319;52.206;20.996;2022-12-29T08:12:26;13.70;;;3.53;;
20322;SDS011;10319;52.206;20.996;2022-12-29T08:14:52;14.57;;;3.87;;
20322;SDS011;10319;52.206;20.996;2022-12-29T08:17:17;13.60;;;3.63;;
20322;SDS011;10319;52.206;20.996;2022-12-29T08:19:42;14.67;;;3.30;;
20322;SDS011;10319;52.206;20.996;2022-12-29T08:22:08;14.50;;;3.60;;
20322;SDS011;10319;52.206;20.996;2022-12-29T08:24:33;13.40;;;3.27;;
20322;SDS011;10319;52.206;20.996;2022-12-29T08:26:58;13.93;;;3.77;;
20322;SDS011;10319;52.206;20.996;2022-12-29T08:29:23;14.30;;;3.50;;
20322;SDS011;10319;52.206;20.996;2022-12-29T08:31:48;15.83;;;3.80;;
20322;SDS011;10319;52.206;20.996;2022-12-29T08:34:14;12.80;;;3.40;;
20322;SDS011;10319;52.206;20.996;2022-12-29T08:36:39;14.17;;;3.40;;
20322;SDS011;10319;52.206;20.996;2022-12-29T08:39:04;14.73;;;3.50;;
20322;SDS011;10319;52.206;20.996;2022-12-29T08:41:30;12.63;;;3.13;;
20322;SDS011;10319;52.206;20.996;2022-12-29T08:43:55;12.27;;;3.37;;
20322;SDS011;10319;52.206;20.996;2022-12-29T08:46:20;13.80;;;3.13;;
20322;SDS011;10319;52.206;20.996;2022-12-29T08:48:45;13.57;;;3.33;;
20322;SDS011;10319;52.206;20.996;2022-12-29T08:51:11;14.17;;;3.47;;
20322;SDS011;10319;52.206;20.996;2022-12-29T08:53:36;14.00;;;3.40;;
20322;SDS011;10319;52.206;20.996;2022-12-29T08:56:01;12.17;;;3.23;;
20322;SDS011;10319;52.206;20.996;2022-12-29T08:58:27;14.60;;;3.70;;
20322;SDS011;10319;52.206;20.996;2022-12-29T09:00:53;14.60;;;3.30;;
20322;SDS011;10319;52.206;20.996;2022-12-29T09:03:18;13.03;;;2.90;;
20322;SDS011;10319;52.206;20.996;2022-12-29T09:05:47;14.10;;;3.87;;
20322;SDS011;10319;52.206;20.996;2022-12-29T09:08:12;12.83;;;3.40;;
20322;SDS011;10319;52.206;20.996;2022-12-29T09:10:37;14.37;;;3.57;;
20322;SDS011;10319;52.206;20.996;2022-12-29T09:13:03;14.23;;;3.57;;
20322;SDS011;10319;52.206;20.996;2022-12-29T09:15:28;11.87;;;3.07;;
20322;SDS011;10319;52.206;20.996;2022-12-29T09:17:53;12.87;;;3.13;;
20322;SDS011;10319;52.206;20.996;2022-12-29T09:20:20;12.80;;;3.23;;
20322;SDS011;10319;52.206;20.996;2022-12-29T09:22:46;12.53;;;3.50;;
20322;SDS011;10319;52.206;20.996;2022-12-29T09:25:11;14.70;;;3.03;;
20322;SDS011;10319;52.206;20.996;2022-12-29T09:27:37;12.37;;;3.23;;
20322;SDS011;10319;52.206;20.996;2022-12-29T09:30:03;12.87;;;3.50;;
20322;SDS011;10319;52.206;20.996;2022-12-29T09:32:28;12.77;;;3.47;;
20322;SDS011;10319;52.206;20.996;2022-12-29T09:34:53;13.53;;;3.07;;
20322;SDS011;10319;52.206;20.996;2022-12-29T09:37:19;15.17;;;3.30;;
20322;SDS011;10319;52.206;20.996;2022-12-29T09:39:44;14.23;;;3.07;;
20322;SDS011;10319;52.206;20.996;2022-12-29T09:47:18;14.03;;;3.33;;
20322;SDS011;10319;52.206;20.996;2022-12-29T09:49:45;12.47;;;3.10;;
20322;SDS011;10319;52.206;20.996;2022-12-29T09:52:18;15.30;;;2.93;;
20322;SDS011;10319;52.206;20.996;2022-12-29T09:54:57;12.10;;;3.10;;
20322;SDS011;10319;52.206;20.996;2022-12-29T09:57:58;12.83;;;3.00;;
20322;SDS011;10319;52.206;20.996;2022-12-29T10:00:20;13.43;;;3.20;;
20322;SDS011;10319;52.206;20.996;2022-12-29T10:02:46;12.13;;;2.83;;
20322;SDS011;10319;52.206;20.996;2022-12-29T10:05:18;11.97;;;3.03;;
20322;SDS011;10319;52.206;20.996;2022-12-29T10:31:35;12.50;;;2.90;;
20322;SDS011;10319;52.206;20.996;2022-12-29T10:34:03;12.13;;;3.03;;
20322;SDS011;10319;52.206;20.996;2022-12-29T10:36:34;13.00;;;3.07;;
20322;SDS011;10319;52.206;20.996;2022-12-29T10:39:14;15.57;;;3.37;;
20322;SDS011;10319;52.206;20.996;2022-12-29T10:41:44;11.77;;;2.83;;
20322;SDS011;10319;52.206;20.996;2022-12-29T10:44:14;13.17;;;3.33;;
20322;SDS011;10319;52.206;20.996;2022-12-29T10:46:40;11.80;;;2.83;;
20322;SDS011;10319;52.206;20.996;2022-12-29T10:49:08;12.53;;;3.13;;
20322;SDS011;10319;52.206;20.996;2022-12-29T10:51:36;12.50;;;3.33;;
20322;SDS011;10319;52.206;20.996;2022-12-29T10:54:09;12.47;;;3.00;;
20322;SDS011;10319;52.206;20.996;2022-12-29T10:56:38;13.43;;;3.73;;
20322;SDS011;10319;52.206;20.996;2022-12-29T10:59:21;12.20;;;3.10;;
20322;SDS011;10319;52.206;20.996;2022-12-29T11:02:12;14.00;;;3.33;;
20322;SDS011;10319;52.206;20.996;2022-12-29T11:07:07;14.40;;;3.30;;
20322;SDS011;10319;52.206;20.996;2022-12-29T11:09:35;11.47;;;2.97;;
20322;SDS011;10319;52.206;20.996;2022-12-29T11:12:15;15.07;;;3.80;;
20322;SDS011;10319;52.206;20.996;2022-12-29T11:14:42;13.23;;;3.20;;
20322;SDS011;10319;52.206;20.996;2022-12-29T11:17:09;14.03;;;3.17;;
20322;SDS011;10319;52.206;20.996;2022-12-29T11:19:39;12.23;;;3.13;;
20322;SDS011;10319;52.206;20.996;2022-12-29T11:22:23;11.83;;;3.20;;
20322;SDS011;10319;52.206;20.996;2022-12-29T11:24:51;13.30;;;3.50;;
20322;SDS011;10319;52.206;20.996;2022-12-29T11:27:18;17.87;;;5.10;;
20322;SDS011;10319;52.206;20.996;2022-12-29T11:29:45;15.30;;;4.13;;
20322;SDS011;10319;52.206;20.996;2022-12-29T11:34:42;15.20;;;3.80;;
20322;SDS011;10319;52.206;20.996;2022-12-29T11:37:12;14.93;;;3.77;;
20322;SDS011;10319;52.206;20.996;2022-12-29T11:42:16;13.43;;;3.50;;
20322;SDS011;10319;52.206;20.996;2022-12-29T11:44:46;14.27;;;3.80;;
20322;SDS011;10319;52.206;20.996;2022-12-29T11:50:06;13.27;;;3.40;;
20322;SDS011;10319;52.206;20.996;2022-12-29T11:52:34;13.20;;;3.17;;
20322;SDS011;10319;52.206;20.996;2022-12-29T11:55:00;12.23;;;3.23;;
20322;SDS011;10319;52.206;20.996;2022-12-29T11:57:26;12.53;;;3.37;;
20322;SDS011;10319;52.206;20.996;2022-12-29T11:59:53;13.20;;;3.40;;
20322;SDS011;10319;52.206;20.996;2022-12-29T12:04:45;13.33;;;3.33;;
20322;SDS011;10319;52.206;20.996;2022-12-29T12:09:57;13.97;;;3.80;;
20322;SDS011;10319;52.206;20.996;2022-12-29T12:15:29;13.10;;;3.33;;
20322;SDS011;10319;52.206;20.996;2022-12-29T12:18:08;14.07;;;3.87;;
20322;SDS011;10319;52.206;20.996;2022-12-29T12:23:12;14.13;;;3.47;;
20322;SDS011;10319;52.206;20.996;2022-12-29T12:25:45;13.50;;;3.47;;
20322;SDS011;10319;52.206;20.996;2022-12-29T12:28:15;13.70;;;3.57;;
20322;SDS011;10319;52.206;20.996;2022-12-29T12:30:44;15.30;;;3.83;;
20322;SDS011;10319;52.206;20.996;2022-12-29T12:33:18;14.67;;;3.53;;
20322;SDS011;10319;52.206;20.996;2022-12-29T12:38:49;15.00;;;3.63;;
20322;SDS011;10319;52.206;20.996;2022-12-29T12:43:52;12.87;;;3.10;;
20322;SDS011;10319;52.206;20.996;2022-12-29T13:14:18;13.57;;;3.57;;
20322;SDS011;10319;52.206;20.996;2022-12-29T13:19:21;16.90;;;3.63;;
20322;SDS011;10319;52.206;20.996;2022-12-29T13:27:17;14.50;;;3.23;;
20322;SDS011;10319;52.206;20.996;2022-12-29T13:29:58;13.20;;;3.10;;
20322;SDS011;10319;52.206;20.996;2022-12-29T13:32:36;14.00;;;3.60;;
20322;SDS011;10319;52.206;20.996;2022-12-29T13:35:14;13.60;;;3.47;;
20322;SDS011;10319;52.206;20.996;2022-12-29T13:37:52;11.80;;;3.17;;
20322;SDS011;10319;52.206;20.996;2022-12-29T13:40:18;14.03;;;3.40;;
20322;SDS011;10319;52.206;20.996;2022-12-29T13:42:47;13.77;;;3.60;;
20322;SDS011;10319;52.206;20.996;2022-12-29T13:45:14;15.87;;;3.80;;
20322;SDS011;10319;52.206;20.996;2022-12-29T13:47:49;14.07;;;3.37;;
20322;SDS011;10319;52.206;20.996;2022-12-29T13:50:20;13.73;;;3.53;;
20322;SDS011;10319;52.206;20.996;2022-12-29T13:58:03;11.80;;;3.13;;
20322;SDS011;10319;52.206;20.996;2022-12-29T14:00:53;13.93;;;3.53;;
20322;SDS011;10319;52.206;20.996;2022-12-29T14:06:14;13.03;;;3.47;;
20322;SDS011;10319;52.206;20.996;2022-12-29T14:08:40;14.30;;;3.43;;
20322;SDS011;10319;52.206;20.996;2022-12-29T14:11:09;14.13;;;3.30;;
20322;SDS011;10319;52.206;20.996;2022-12-29T14:13:37;13.47;;;3.40;;
20322;SDS011;10319;52.206;20.996;2022-12-29T14:16:03;15.20;;;3.60;;
20322;SDS011;10319;52.206;20.996;2022-12-29T14:18:29;12.50;;;3.30;;
20322;SDS011;10319;52.206;20.996;2022-12-29T14:28:37;14.07;;;3.37;;
20322;SDS011;10319;52.206;20.996;2022-12-29T14:31:51;14.93;;;3.93;;
20322;SDS011;10319;52.206;20.996;2022-12-29T14:36:35;12.90;;;3.57;;
20322;SDS011;10319;52.206;20.996;2022-12-29T14:39:01;12.67;;;3.07;;
20322;SDS011;10319;52.206;20.996;2022-12-29T14:41:28;13.53;;;3.63;;
20322;SDS011;10319;52.206;20.996;2022-12-29T14:43:58;13.23;;;3.50;;
20322;SDS011;10319;52.206;20.996;2022-12-29T14:46:24;14.43;;;3.80;;
20322;SDS011;10319;52.206;20.996;2022-12-29T14:48:54;14.30;;;4.10;;
20322;SDS011;10319;52.206;20.996;2022-12-29T14:51:24;12.63;;;3.57;;
20322;SDS011;10319;52.206;20.996;2022-12-29T14:53:53;15.67;;;3.97;;
20322;SDS011;10319;52.206;20.996;2022-12-29T14:56:18;15.77;;;4.13;;
20322;SDS011;10319;52.206;20.996;2022-12-29T15:01:22;14.93;;;3.70;;
20322;SDS011;10319;52.206;20.996;2022-12-29T15:03:48;14.20;;;3.70;;
20322;SDS011;10319;52.206;20.996;2022-12-29T15:06:17;14.03;;;3.57;;
20322;SDS011;10319;52.206;20.996;2022-12-29T15:11:17;15.73;;;3.93;;
20322;SDS011;10319;52.206;20.996;2022-12-29T15:13:43;14.30;;;3.77;;
20322;SDS011;10319;52.206;20.996;2022-12-29T15:18:46;16.07;;;3.97;;
20322;SDS011;10319;52.206;20.996;2022-12-29T15:21:11;14.53;;;3.70;;
20322;SDS011;10319;52.206;20.996;2022-12-29T15:23:37;16.30;;;4.20;;
20322;SDS011;10319;52.206;20.996;2022-12-29T15:26:06;15.27;;;4.17;;
20322;SDS011;10319;52.206;20.996;2022-12-29T15:31:04;15.57;;;4.20;;
20322;SDS011;10319;52.206;20.996;2022-12-29T15:33:30;13.30;;;3.93;;
20322;SDS011;10319;52.206;20.996;2022-12-29T15:35:56;14.03;;;3.60;;
20322;SDS011;10319;52.206;20.996;2022-12-29T15:38:23;15.13;;;4.33;;
20322;SDS011;10319;52.206;20.996;2022-12-29T15:40:51;15.97;;;3.93;;
20322;SDS011;10319;52.206;20.996;2022-12-29T15:45:43;15.87;;;4.10;;
20322;SDS011;10319;52.206;20.996;2022-12-29T15:48:13;14.70;;;4.07;;
20322;SDS011;10319;52.206;20.996;2022-12-29T15:50:40;14.87;;;4.20;;
20322;SDS011;10319;52.206;20.996;2022-12-29T15:53:12;14.97;;;4.03;;
20322;SDS011;10319;52.206;20.996;2022-12-29T15:55:38;15.60;;;4.40;;
20322;SDS011;10319;52.206;20.996;2022-12-29T15:58:05;14.77;;;3.97;;
20322;SDS011;10319;52.206;20.996;2022-12-29T16:00:45;15.43;;;4.23;;
20322;SDS011;10319;52.206;20.996;2022-12-29T16:03:11;13.83;;;3.87;;
20322;SDS011;10319;52.206;20.996;2022-12-29T16:05:39;14.00;;;3.90;;
20322;SDS011;10319;52.206;20.996;2022-12-29T16:10:48;14.83;;;3.77;;
20322;SDS011;10319;52.206;20.996;2022-12-29T16:13:24;14.80;;;3.90;;
20322;SDS011;10319;52.206;20.996;2022-12-29T16:15:52;13.53;;;3.57;;
20322;SDS011;10319;52.206;20.996;2022-12-29T16:18:22;11.43;;;3.53;;
20322;SDS011;10319;52.206;20.996;2022-12-29T16:20:48;15.33;;;4.00;;
20322;SDS011;10319;52.206;20.996;2022-12-29T16:23:22;14.93;;;3.83;;
20322;SDS011;10319;52.206;20.996;2022-12-29T16:25:48;13.30;;;3.57;;
20322;SDS011;10319;52.206;20.996;2022-12-29T16:28:18;18.13;;;3.90;;
20322;SDS011;10319;52.206;20.996;2022-12-29T16:30:45;14.33;;;3.60;;
20322;SDS011;10319;52.206;20.996;2022-12-29T16:33:29;15.07;;;3.90;;
20322;SDS011;10319;52.206;20.996;2022-12-29T16:35:57;14.57;;;3.83;;
20322;SDS011;10319;52.206;20.996;2022-12-29T16:38:22;14.57;;;3.80;;
20322;SDS011;10319;52.206;20.996;2022-12-29T16:40:55;15.40;;;4.10;;
20322;SDS011;10319;52.206;20.996;2022-12-29T16:48:18;15.03;;;4.30;;
20322;SDS011;10319;52.206;20.996;2022-12-29T16:50:44;15.23;;;4.17;;
20322;SDS011;10319;52.206;20.996;2022-12-29T16:53:29;15.30;;;4.83;;
20322;SDS011;10319;52.206;20.996;2022-12-29T16:55:57;15.10;;;4.07;;
20322;SDS011;10319;52.206;20.996;2022-12-29T16:58:25;16.20;;;4.13;;
20322;SDS011;10319;52.206;20.996;2022-12-29T17:00:55;13.77;;;3.93;;
20322;SDS011;10319;52.206;20.996;2022-12-29T17:03:22;15.97;;;4.70;;
20322;SDS011;10319;52.206;20.996;2022-12-29T17:05:47;13.53;;;3.60;;
20322;SDS011;10319;52.206;20.996;2022-12-29T17:08:20;15.23;;;4.30;;
20322;SDS011;10319;52.206;20.996;2022-12-29T17:10:51;14.57;;;3.90;;
20322;SDS011;10319;52.206;20.996;2022-12-29T17:13:36;14.57;;;4.30;;
20322;SDS011;10319;52.206;20.996;2022-12-29T17:16:02;14.67;;;4.13;;